Hauptseite
METAR-TAF:

METAR-TAF

Flughäfen :

Flughafen Rostock-Laage

Rostock, Deutschland

Breite: 53-55N, Länge: 012-17E, Höhe: 40 m

Beobachtung

Neuester Wetterbericht von vor 26 Minuten, um 18:20 UTC
Wind 3 kt aus unterschiedlichen Richtungen
Temperatur 24°C
Luftfeuchtigkeit 38%
Luftdruck 1017 hPa
Sichtweite 10 km oder mehr
Leicht bewölkt in der Höhe von 31000 ft

METAR: ETNL 051820Z VRB03KT 9999 FEW310 24/09 Q1017 BLU+

Zeit: 20:46 (18:46 UTC)

Prognose

Neuester Wetterbericht von vor 2 Stunden und 34 Minuten, um 16:12 UTC
Gültige Prognose vom 05 um 17 UTC bis 06 um 05 UTC
Wind 8 kt aus Süd/Südwest
Sichtweite 10 km oder mehr
Durchbrochene Bewölkung in der Höhe von 35000 ft
Übergehend zu
vom 05 um 17 UTC bis 05 um 19 UTC
Wind 5 kt aus Südost
Sichtweite 10 km oder mehr
Leicht bewölkt in der Höhe von 35000 ft

TAF: ETNL 051612Z 0517/0605 20008KT 9999 NSW BKN350 BECMG 0517/0519 14005KT 9999 NSW FEW350 BY ETGL

Wetterbeobachtungen und Prognosen von mehr als 4000 Flughäfen (METAR und TAF Bericht).

Die verfügbaren Stationen werden durch gelbe und rote Markierungen auf der Karte dargestellt.

Führen Sie die Maus auf sie, um den Namen der Station zu sehen.

Darauf klicken, um die Beobachtung von Wetterbeobachtungen und Prognosen zu sehen.

Um die Karte zu ändern : klicken Sie auf den grünen Tasten mit einem schwarzen Kreuz Zum Vergrößern, auf den grünen Button mit einem Gedankenstrich zu verkleinern, oder auf die grünen Pfeile für benachbarte Karten.


METAR-TAF: